Nesher, Israel
Current Conditions -  °F | °C
As of 2:50 PM on Friday 24 Oct 2014 (Local Time) from LLHA Reporting Station
Clear Clear  
Wind Chill: 79°   Ceiling: Unl
Heat Index: 80°   Visibility: 6mi
Dew Point: 59°   Wind: 10mph
Humidity: 51%   Direction: 320°NW
Pressure: 30"   Gusts: NA
Location:  32.75°N, 35.06°E
Report Text: LLHA 241250Z 32009KT CAVOK 26/15 Q1016
Loading
Personal Weather Stations






























Interactive Weather Map
Tropical Storm Tracking
New forecast layout! Learn more

10-Day Weather Forecast

Advertisements
Track Severe Weather on mobile